createdAt,value
2022-10-01T00:01:23.496Z,88.50
2022-10-01T00:04:01.021Z,88.55
2022-10-01T00:06:36.905Z,88.64
2022-10-01T00:09:12.844Z,88.72
2022-10-01T00:11:48.645Z,88.78
2022-10-01T00:14:24.629Z,88.86
2022-10-01T00:17:00.615Z,88.92
2022-10-01T00:19:36.941Z,88.95
2022-10-01T00:22:13.039Z,88.89
2022-10-01T00:24:49.529Z,88.85
2022-10-01T00:27:25.520Z,88.91
2022-10-01T00:30:03.453Z,88.91
2022-10-01T00:32:41.441Z,88.94
2022-10-01T00:35:17.867Z,89.06
2022-10-01T00:37:54.742Z,89.20
2022-10-01T00:40:31.016Z,89.33
2022-10-01T00:43:28.830Z,89.38
2022-10-01T00:46:15.365Z,89.35
2022-10-01T00:49:01.246Z,89.40
2022-10-01T00:51:43.821Z,89.47
2022-10-01T00:54:31.093Z,89.55
2022-10-01T00:57:09.865Z,89.63
2022-10-01T00:59:46.610Z,89.70
2022-10-01T01:02:22.775Z,89.77
2022-10-01T01:04:59.465Z,89.83
2022-10-01T01:07:37.030Z,89.88
2022-10-01T01:10:16.251Z,89.90
2022-10-01T01:13:18.451Z,89.92
2022-10-01T01:16:06.164Z,89.96
2022-10-01T01:18:52.362Z,90.03
2022-10-01T01:21:36.463Z,90.05
2022-10-01T01:24:50.885Z,90.05
2022-10-01T01:27:39.160Z,90.05
2022-10-01T01:30:18.093Z,90.08
2022-10-01T01:33:04.758Z,90.10
2022-10-01T01:35:47.981Z,90.13
2022-10-01T01:38:28.819Z,90.15
2022-10-01T01:41:07.958Z,90.17
2022-10-01T01:43:49.714Z,90.18
2022-10-01T01:46:32.091Z,90.23
2022-10-01T01:49:09.101Z,90.28
2022-10-01T01:51:58.356Z,90.31
2022-10-01T01:54:35.896Z,90.37
2022-10-01T01:57:15.034Z,90.43
2022-10-01T01:59:51.235Z,90.47
2022-10-01T02:02:34.356Z,90.52
2022-10-01T02:05:16.227Z,90.54
2022-10-01T02:08:09.463Z,90.58
2022-10-01T02:11:05.817Z,90.48
2022-10-01T02:14:00.440Z,90.58
2022-10-01T02:16:50.264Z,90.65
2022-10-01T02:19:37.580Z,90.72
2022-10-01T02:22:22.967Z,90.71
2022-10-01T02:25:06.303Z,90.72
2022-10-01T02:27:50.280Z,90.72
2022-10-01T02:30:26.492Z,90.71
2022-10-01T02:33:05.321Z,90.70
2022-10-01T02:35:44.378Z,90.68
2022-10-01T02:38:23.874Z,90.69
2022-10-01T02:41:05.810Z,90.69
2022-10-01T02:43:53.466Z,90.68
2022-10-01T02:46:37.520Z,90.69
2022-10-01T02:49:15.120Z,90.70
2022-10-01T02:52:09.097Z,90.75
2022-10-01T02:54:54.674Z,90.74
2022-10-01T02:57:32.413Z,90.78
2022-10-01T03:00:21.460Z,90.81
2022-10-01T03:02:57.849Z,90.83
2022-10-01T03:05:33.962Z,90.84
2022-10-01T03:08:09.934Z,90.86
2022-10-01T03:10:46.908Z,90.91
2022-10-01T03:13:23.592Z,90.95
2022-10-01T03:15:59.475Z,90.94
2022-10-01T03:18:35.479Z,90.95
2022-10-01T03:21:11.571Z,90.96
2022-10-01T03:23:47.612Z,90.97
2022-10-01T03:26:23.484Z,90.99
2022-10-01T03:28:59.169Z,90.99
2022-10-01T03:31:35.391Z,90.99
2022-10-01T03:34:13.468Z,90.97
2022-10-01T03:36:50.087Z,90.95
2022-10-01T03:39:25.874Z,90.94
2022-10-01T03:42:01.925Z,90.94
2022-10-01T03:44:37.808Z,90.91
2022-10-01T03:47:13.961Z,90.90
2022-10-01T03:49:49.780Z,90.86
2022-10-01T03:52:25.662Z,90.84
2022-10-01T03:55:01.920Z,90.82
2022-10-01T03:57:37.765Z,90.82
2022-10-01T04:00:18.370Z,90.79
2022-10-01T04:02:54.345Z,90.79
2022-10-01T04:05:30.233Z,90.76
2022-10-01T04:08:06.731Z,90.76
2022-10-01T04:10:43.678Z,90.77
2022-10-01T04:13:20.070Z,90.77
2022-10-01T04:15:55.864Z,90.81
2022-10-01T04:18:31.926Z,90.78
2022-10-01T04:21:07.958Z,90.70
2022-10-01T04:23:44.262Z,90.67
2022-10-01T04:26:20.144Z,90.67
2022-10-01T04:28:56.047Z,90.65
2022-10-01T04:31:35.488Z,90.64
2022-10-01T04:34:12.853Z,90.66
2022-10-01T04:36:49.150Z,90.67
2022-10-01T04:39:25.146Z,90.66
2022-10-01T04:42:01.745Z,90.65
2022-10-01T04:44:37.626Z,90.68
2022-10-01T04:47:13.532Z,90.71
2022-10-01T04:49:49.311Z,90.74
2022-10-01T04:52:25.167Z,90.76
2022-10-01T04:55:01.302Z,90.80
2022-10-01T04:57:38.379Z,90.81
2022-10-01T05:00:19.088Z,90.79
2022-10-01T05:02:55.913Z,90.83
2022-10-01T05:05:33.298Z,90.82
2022-10-01T05:08:10.078Z,90.82
2022-10-01T05:10:46.074Z,90.80
2022-10-01T05:13:21.813Z,90.77
2022-10-01T05:15:57.644Z,90.78
2022-10-01T05:18:33.637Z,90.76
2022-10-01T05:21:12.776Z,90.79
2022-10-01T05:23:48.535Z,90.82
2022-10-01T05:26:24.474Z,90.80
2022-10-01T05:29:00.600Z,90.78
2022-10-01T05:31:37.919Z,90.69
2022-10-01T05:34:14.630Z,90.71
2022-10-01T05:36:50.422Z,90.77
2022-10-01T05:39:26.407Z,90.83
2022-10-01T05:42:06.282Z,90.85
2022-10-01T05:44:46.533Z,90.82
2022-10-01T05:47:23.081Z,90.68
2022-10-01T05:49:59.241Z,90.60
2022-10-01T05:52:35.093Z,90.47
2022-10-01T05:55:12.015Z,90.33
2022-10-01T05:57:54.168Z,90.19
2022-10-01T06:00:31.329Z,90.02
2022-10-01T06:03:09.246Z,89.88
2022-10-01T06:05:46.883Z,89.78
2022-10-01T06:08:22.827Z,89.61
2022-10-01T06:11:05.536Z,89.49
2022-10-01T06:13:46.919Z,89.39
2022-10-01T06:16:22.894Z,89.19
2022-10-01T06:18:59.466Z,89.12
2022-10-01T06:21:35.971Z,89.03
2022-10-01T06:24:12.477Z,88.84
2022-10-01T06:26:49.340Z,88.69
2022-10-01T06:29:25.398Z,88.61
2022-10-01T06:32:01.595Z,88.56
2022-10-01T06:34:37.566Z,88.51
2022-10-01T06:37:13.453Z,88.36
2022-10-01T06:39:49.327Z,88.13
2022-10-01T06:42:25.108Z,87.94
2022-10-01T06:45:01.040Z,87.89
2022-10-01T06:47:37.904Z,87.66
2022-10-01T06:50:14.769Z,87.54
2022-10-01T06:52:50.654Z,87.33
2022-10-01T06:55:29.659Z,87.29
2022-10-01T06:58:08.809Z,87.02
2022-10-01T07:00:45.386Z,86.78
2022-10-01T07:03:24.716Z,86.56
2022-10-01T07:06:08.235Z,86.55
2022-10-01T07:08:44.041Z,86.17
2022-10-01T07:11:20.201Z,86.11
2022-10-01T07:13:57.690Z,86.04
2022-10-01T07:16:34.040Z,85.75
2022-10-01T07:19:10.155Z,85.58
2022-10-01T07:21:48.819Z,85.40
2022-10-01T07:24:24.670Z,85.26
2022-10-01T07:27:05.066Z,84.72
2022-10-01T07:29:43.212Z,84.72
2022-10-01T07:32:19.039Z,84.66
2022-10-01T07:34:55.163Z,84.25
2022-10-01T07:37:31.462Z,83.93
2022-10-01T07:40:08.746Z,83.86
2022-10-01T07:42:45.038Z,83.60
2022-10-01T07:45:22.043Z,83.46
2022-10-01T07:48:05.597Z,82.94
2022-10-01T07:50:43.677Z,82.51
2022-10-01T07:53:20.023Z,82.57
2022-10-01T07:55:56.175Z,82.65
2022-10-01T07:58:32.030Z,82.80
2022-10-01T08:01:10.296Z,82.74
2022-10-01T08:03:48.851Z,82.53
2022-10-01T08:06:25.941Z,82.33
2022-10-01T08:09:02.203Z,82.33
2022-10-01T08:11:38.124Z,82.02
2022-10-01T08:14:14.117Z,81.80
2022-10-01T08:16:50.282Z,81.64
2022-10-01T08:19:26.338Z,81.60
2022-10-01T08:22:02.068Z,81.21
2022-10-01T08:24:38.254Z,81.49
2022-10-01T08:27:14.140Z,81.24
2022-10-01T08:29:50.250Z,81.28
2022-10-01T08:32:28.196Z,81.44
2022-10-01T08:35:04.965Z,81.33
2022-10-01T08:37:40.756Z,81.37
2022-10-01T08:40:17.703Z,81.49
2022-10-01T08:43:03.250Z,81.64
2022-10-01T08:45:49.539Z,81.67
2022-10-01T08:48:45.106Z,81.23
2022-10-01T08:51:31.423Z,81.31
2022-10-01T08:54:24.762Z,81.57
2022-10-01T08:57:04.483Z,81.62
2022-10-01T08:59:49.945Z,81.57
2022-10-01T09:02:31.227Z,81.60
2022-10-01T09:05:15.001Z,81.66
2022-10-01T09:08:21.560Z,81.69
2022-10-01T09:11:12.110Z,81.51
2022-10-01T09:14:10.546Z,81.29
2022-10-01T09:17:01.602Z,80.99
2022-10-01T09:20:00.384Z,80.97
2022-10-01T09:22:52.237Z,81.02
2022-10-01T09:25:31.171Z,81.07
2022-10-01T09:28:18.003Z,80.96
2022-10-01T09:31:01.630Z,80.80
2022-10-01T09:33:42.913Z,80.89
2022-10-01T09:36:28.446Z,80.57
2022-10-01T09:39:19.625Z,80.25
2022-10-01T09:41:56.305Z,79.88
2022-10-01T09:44:35.502Z,81.53
2022-10-01T09:47:23.221Z,80.75
2022-10-01T09:50:02.078Z,79.05
2022-10-01T09:52:41.841Z,80.47
2022-10-01T09:55:33.186Z,80.01
2022-10-01T09:58:18.464Z,78.75
2022-10-01T10:00:56.678Z,78.05
2022-10-01T10:03:34.716Z,77.40
2022-10-01T10:06:11.107Z,76.00
2022-10-01T10:08:49.242Z,75.61
2022-10-01T10:11:31.707Z,75.67
2022-10-01T10:14:17.090Z,76.16
2022-10-01T10:16:57.054Z,75.87
2022-10-01T10:19:34.183Z,75.74
2022-10-01T10:22:24.958Z,75.58
2022-10-01T10:25:17.563Z,75.50
2022-10-01T10:28:02.606Z,75.74
2022-10-01T10:30:43.605Z,75.95
2022-10-01T10:33:22.015Z,75.93
2022-10-01T10:36:09.578Z,76.23
2022-10-01T10:38:50.965Z,76.61
2022-10-01T10:41:29.495Z,76.81
2022-10-01T10:44:14.607Z,76.67
2022-10-01T10:46:53.282Z,77.11
2022-10-01T10:49:32.970Z,77.27
2022-10-01T10:52:26.158Z,77.18
2022-10-01T10:55:21.180Z,77.23
2022-10-01T10:58:08.815Z,77.27
2022-10-01T11:00:53.883Z,77.01
2022-10-01T11:03:38.131Z,77.17
2022-10-01T11:06:19.647Z,77.24
2022-10-01T11:09:11.729Z,76.96
2022-10-01T11:12:02.835Z,77.01
2022-10-01T11:15:09.278Z,76.87
2022-10-01T11:18:24.198Z,77.03
2022-10-01T11:21:20.218Z,77.26
2022-10-01T11:24:33.650Z,77.10
2022-10-01T11:27:24.393Z,77.19
2022-10-01T11:30:12.776Z,76.73
2022-10-01T11:33:03.715Z,76.32
2022-10-01T11:35:59.425Z,76.41
2022-10-01T11:38:54.784Z,76.53
2022-10-01T11:41:44.421Z,76.51
2022-10-01T11:44:30.231Z,76.54
2022-10-01T11:47:14.553Z,76.46
2022-10-01T11:50:05.488Z,76.73
2022-10-01T11:52:52.719Z,76.90
2022-10-01T11:55:53.154Z,76.40
2022-10-01T11:58:54.150Z,76.76
2022-10-01T12:01:43.624Z,76.68
2022-10-01T12:04:37.954Z,76.76
2022-10-01T12:07:23.538Z,76.85
2022-10-01T12:10:21.305Z,77.01
2022-10-01T12:13:10.163Z,77.24
2022-10-01T12:15:54.688Z,77.24
2022-10-01T12:18:43.548Z,77.33
2022-10-01T12:21:27.721Z,77.50
2022-10-01T12:24:13.015Z,77.54
2022-10-01T12:27:08.200Z,77.50
2022-10-01T12:30:03.380Z,77.76
2022-10-01T12:33:17.889Z,77.95
2022-10-01T12:36:16.172Z,78.00
2022-10-01T12:39:14.025Z,77.80
2022-10-01T12:42:09.375Z,77.68
2022-10-01T12:45:03.829Z,78.02
2022-10-01T12:47:52.384Z,78.18
2022-10-01T12:50:47.132Z,78.22
2022-10-01T12:53:45.817Z,78.32
2022-10-01T12:56:34.025Z,78.50
2022-10-01T12:59:44.569Z,79.06
2022-10-01T13:02:59.210Z,79.29
2022-10-01T13:05:51.856Z,79.70
2022-10-01T13:08:49.081Z,79.91
2022-10-01T13:11:47.075Z,80.24
2022-10-01T13:14:24.200Z,80.49
2022-10-01T13:17:07.906Z,80.80
2022-10-01T13:19:55.456Z,81.06
2022-10-01T13:22:47.242Z,81.24
2022-10-01T13:25:36.308Z,81.37
2022-10-01T13:28:27.018Z,81.56
2022-10-01T13:31:14.835Z,81.80
2022-10-01T13:34:01.604Z,81.90
2022-10-01T13:36:40.047Z,81.94
2022-10-01T13:39:39.446Z,81.74
2022-10-01T13:42:27.490Z,81.82
2022-10-01T13:45:07.307Z,81.65
2022-10-01T13:47:43.172Z,81.68
2022-10-01T13:50:27.994Z,81.66
2022-10-01T13:53:18.587Z,81.74
2022-10-01T13:55:56.946Z,81.66
2022-10-01T13:58:43.142Z,82.07
2022-10-01T14:01:43.432Z,82.30
2022-10-01T14:04:35.408Z,82.39
2022-10-01T14:07:21.661Z,82.51
2022-10-01T14:10:02.020Z,82.43
2022-10-01T14:13:00.804Z,82.76
2022-10-01T14:16:03.564Z,83.04
2022-10-01T14:18:44.683Z,83.27
2022-10-01T14:21:47.778Z,83.40
2022-10-01T14:24:40.107Z,83.60
2022-10-01T14:27:27.381Z,83.95
2022-10-01T14:30:15.159Z,84.09
2022-10-01T14:33:26.254Z,84.34
2022-10-01T14:36:11.799Z,84.36
2022-10-01T14:38:48.644Z,84.45
2022-10-01T14:41:32.749Z,84.76
2022-10-01T14:44:27.466Z,84.91
2022-10-01T14:47:15.088Z,85.33
2022-10-01T14:49:52.218Z,85.52
2022-10-01T14:52:32.781Z,85.65
2022-10-01T14:55:15.757Z,85.80
2022-10-01T14:57:56.275Z,85.97
2022-10-01T15:00:34.880Z,86.10
2022-10-01T15:03:18.212Z,86.18
2022-10-01T15:06:05.408Z,86.29
2022-10-01T15:08:47.915Z,86.35
2022-10-01T15:11:28.337Z,86.43
2022-10-01T15:14:16.572Z,86.47
2022-10-01T15:16:53.912Z,86.54
2022-10-01T15:19:34.026Z,86.62
2022-10-01T15:22:13.989Z,86.65
2022-10-01T15:24:53.501Z,86.71
2022-10-01T15:27:30.160Z,86.77
2022-10-01T15:30:07.662Z,86.82
2022-10-01T15:32:45.120Z,86.82
2022-10-01T15:35:29.045Z,86.88
2022-10-01T15:38:06.756Z,86.92
2022-10-01T15:40:44.894Z,86.96
2022-10-01T15:43:37.468Z,87.03
2022-10-01T15:46:33.816Z,87.02
2022-10-01T15:49:27.688Z,87.06
2022-10-01T15:52:24.114Z,87.08
2022-10-01T15:55:03.957Z,86.98
2022-10-01T15:57:43.020Z,86.94
2022-10-01T16:00:30.642Z,87.16
2022-10-01T16:03:07.197Z,87.26
2022-10-01T16:05:51.464Z,87.21
2022-10-01T16:08:34.597Z,87.18
2022-10-01T16:11:31.790Z,87.33
2022-10-01T16:14:44.137Z,87.45
2022-10-01T16:17:38.261Z,87.52
2022-10-01T16:20:50.353Z,87.58
2022-10-01T16:23:49.497Z,87.67
2022-10-01T16:26:42.528Z,87.82
2022-10-01T16:29:29.932Z,87.86
2022-10-01T16:32:06.065Z,87.92
2022-10-01T16:34:41.894Z,87.99
2022-10-01T16:37:18.593Z,88.01
2022-10-01T16:39:54.437Z,88.04
2022-10-01T16:42:30.551Z,88.05
2022-10-01T16:45:08.336Z,88.06
2022-10-01T16:47:45.113Z,87.96
2022-10-01T16:50:24.809Z,87.95
2022-10-01T16:53:02.279Z,87.94
2022-10-01T16:55:38.620Z,87.93
2022-10-01T16:58:15.736Z,87.97
2022-10-01T17:00:52.156Z,88.03
2022-10-01T17:03:28.091Z,88.07
2022-10-01T17:06:04.217Z,88.08
2022-10-01T17:08:40.173Z,88.17
2022-10-01T17:11:16.825Z,88.23
2022-10-01T17:13:52.941Z,88.30
2022-10-01T17:16:29.661Z,88.33
2022-10-01T17:19:05.810Z,88.42
2022-10-01T17:21:42.219Z,88.58
2022-10-01T17:24:18.182Z,88.66
2022-10-01T17:26:54.571Z,88.98
2022-10-01T17:29:32.423Z,88.99
2022-10-01T17:32:08.364Z,88.85
2022-10-01T17:34:44.767Z,88.79
2022-10-01T17:37:21.829Z,88.71
2022-10-01T17:39:57.960Z,88.52
2022-10-01T17:42:35.575Z,88.67
2022-10-01T17:45:16.131Z,88.88
2022-10-01T17:47:53.051Z,89.01
2022-10-01T17:50:28.951Z,89.06
2022-10-01T17:53:05.681Z,89.13
2022-10-01T17:55:46.814Z,89.21
2022-10-01T17:58:24.081Z,89.24
2022-10-01T18:01:00.260Z,89.28
2022-10-01T18:03:36.398Z,89.29
2022-10-01T18:06:15.428Z,89.34
2022-10-01T18:08:55.478Z,89.40
2022-10-01T18:11:32.340Z,89.39
2022-10-01T18:14:08.716Z,89.29
2022-10-01T18:16:45.351Z,89.29
2022-10-01T18:22:17.080Z,89.28
2022-10-01T18:24:53.502Z,89.33
2022-10-01T18:27:29.657Z,89.37
2022-10-01T18:30:06.106Z,89.39
2022-10-01T18:32:46.965Z,89.45
2022-10-01T18:35:35.133Z,89.50
2022-10-01T18:38:24.452Z,89.53
2022-10-01T18:41:10.087Z,89.55
2022-10-01T18:43:47.309Z,89.57
2022-10-01T18:46:46.125Z,89.59
2022-10-01T18:49:48.954Z,89.64
2022-10-01T18:52:40.750Z,89.70
2022-10-01T18:56:21.016Z,89.76
2022-10-01T18:59:47.305Z,89.77
2022-10-01T19:02:54.032Z,89.82
2022-10-01T19:06:14.386Z,89.88
2022-10-01T19:09:38.576Z,89.94
2022-10-01T19:12:46.978Z,89.95
2022-10-01T19:15:45.092Z,89.99
2022-10-01T19:18:51.957Z,90.03
2022-10-01T19:21:45.323Z,90.11
2022-10-01T19:24:59.049Z,90.13
2022-10-01T19:28:01.105Z,90.12
2022-10-01T19:30:46.765Z,89.85
2022-10-01T19:33:25.154Z,89.28
2022-10-01T19:36:02.565Z,88.70
2022-10-01T19:38:44.024Z,88.30
2022-10-01T19:41:36.266Z,87.88
2022-10-01T19:44:21.988Z,87.53
2022-10-01T19:47:06.906Z,87.32
2022-10-01T19:49:45.945Z,87.19
2022-10-01T19:52:25.187Z,87.16
2022-10-01T19:55:02.880Z,87.01
2022-10-01T19:57:42.408Z,86.95
2022-10-01T20:00:24.547Z,86.92
2022-10-01T20:03:13.322Z,86.92
2022-10-01T20:05:54.720Z,86.87
2022-10-01T20:08:43.018Z,86.80
2022-10-01T20:11:30.372Z,86.76
2022-10-01T20:14:58.197Z,86.68
2022-10-01T20:17:56.913Z,86.66
2022-10-01T20:20:44.177Z,86.62
2022-10-01T20:23:42.563Z,86.54
2022-10-01T20:26:37.190Z,86.55
2022-10-01T20:29:38.175Z,86.55
2022-10-01T20:32:26.024Z,86.64
2022-10-01T20:35:25.350Z,86.71
2022-10-01T20:38:12.528Z,86.86
2022-10-01T20:40:55.615Z,87.05
2022-10-01T20:43:45.194Z,87.09
2022-10-01T20:46:40.469Z,87.28
2022-10-01T20:49:27.324Z,87.28
2022-10-01T20:52:15.527Z,87.39
2022-10-01T20:55:03.670Z,87.61
2022-10-01T20:57:51.008Z,87.68
2022-10-01T21:00:31.231Z,87.81
2022-10-01T21:03:25.194Z,87.82
2022-10-01T21:06:11.108Z,87.95
2022-10-01T21:08:58.761Z,87.99
2022-10-01T21:11:43.811Z,88.00
2022-10-01T21:14:30.296Z,88.10
2022-10-01T21:17:41.074Z,88.17
2022-10-01T21:20:51.009Z,88.23
2022-10-01T21:23:49.784Z,88.29
2022-10-01T21:26:37.907Z,88.46
2022-10-01T21:29:40.553Z,88.58
2022-10-01T21:32:41.286Z,88.71
2022-10-01T21:35:32.070Z,88.76
2022-10-01T21:38:28.379Z,88.81
2022-10-01T21:41:53.785Z,88.90
2022-10-01T21:45:17.825Z,88.91
2022-10-01T21:48:14.628Z,88.91
2022-10-01T21:51:07.913Z,88.93
2022-10-01T21:54:37.360Z,88.88
2022-10-01T21:57:43.347Z,88.90
2022-10-01T22:00:26.264Z,89.00
2022-10-01T22:03:23.007Z,89.03
2022-10-01T22:06:13.041Z,89.07
2022-10-01T22:09:07.248Z,89.14
2022-10-01T22:11:53.884Z,89.12
2022-10-01T22:14:32.163Z,89.06
2022-10-01T22:17:19.451Z,89.17
2022-10-01T22:20:01.100Z,89.32
2022-10-01T22:22:40.659Z,90.43
2022-10-01T22:25:17.657Z,89.04
2022-10-01T22:28:01.684Z,88.57
2022-10-01T22:30:42.888Z,88.34
2022-10-01T22:33:29.881Z,88.25
2022-10-01T22:36:17.105Z,88.23
2022-10-01T22:38:57.737Z,88.28
2022-10-01T22:41:41.773Z,88.23
2022-10-01T22:44:21.865Z,88.33
2022-10-01T22:47:35.061Z,88.34
2022-10-01T22:50:38.441Z,88.34
2022-10-01T22:53:43.669Z,88.38
2022-10-01T22:56:31.641Z,88.42
2022-10-01T22:59:24.466Z,88.54
2022-10-01T23:02:12.432Z,88.52
2022-10-01T23:05:11.579Z,88.57
2022-10-01T23:08:05.411Z,88.64
2022-10-01T23:10:52.720Z,88.64
2022-10-01T23:13:42.790Z,88.65
2022-10-01T23:16:42.186Z,88.71
2022-10-01T23:19:45.274Z,88.71
2022-10-01T23:22:41.263Z,88.71
2022-10-01T23:25:32.420Z,88.73
2022-10-01T23:28:26.667Z,88.70
2022-10-01T23:31:18.707Z,88.57
2022-10-01T23:34:08.364Z,88.56
2022-10-01T23:36:52.537Z,88.54
2022-10-01T23:39:51.493Z,88.54
2022-10-01T23:42:47.180Z,88.47
2022-10-01T23:45:33.837Z,88.47
2022-10-01T23:48:19.688Z,88.46
2022-10-01T23:51:03.416Z,88.54
2022-10-01T23:53:58.790Z,88.57
2022-10-01T23:56:50.873Z,88.63
2022-10-01T23:59:37.638Z,88.61
